메인 페이지
METAR-TAF:

METAR-TAF

공항 :

Naval Air Station Whiting Field North

밀튼, 플로리다, 미국

위도: 30-44-00N, 경도: 087-01-00W, 고도: 60m

현재 날씨관측

예보는 19분 전, 04:56시(UTC)에 발표되었습니다.
서북서4kt
온도 9°C
습도 93%
기압 1019 hPa
시정: 16.1km
맑음

METAR: KNSE 220456Z AUTO 29004KT 10SM CLR 09/08 A3008 RMK AO2 SLP173 T00940078 $

시각: 00:15 (05:15 UTC)

예보

예보 대상 시간: 21일 23시부터 22일 23시까지 (UTC)
북북서7kt
시정 10km 이상
맑음
일시적
21일 23시부터 22일 01시까지 (UTC)
서북서11kt, 순간 최대 풍속 16kt
22일 1500시부터 (UTC)
7kt
시정 10km 이상
고도 25000ft 상공 구름 조금
22일 1900시부터 (UTC)
북서9kt
시정: 2211m
고도 25000ft 상공 구름 보통

TAF: KNSE 2123/2223 33007KT 9999 SKC QNH2998INS TEMPO 2123/2201 30011G16KT FM221500 36007KT 9999 FEW250 QNH3013INS FM221900 32009KT 9999 SCT250 QNH3010INS AUTOMATED SENSOR METWATCH 2204 TIL 2211 T07/2212Z T21/2220Z FN20029

4,000개 이상의 공항 관측 자료 및 예보 (METAR 및 TAF 보고).

지도상에서 검색 가능한 기상관측소가 노란 점과 빨간 점으로 표시되어 있습니다.

기상관측소 명을 보려면 표시 위로 마우스를 이동하세요.

날씨 관측과 예보를 보려면 클릭하세요.

지도 변경 : 확대하려면 엑스 표시가 있는 녹색 버튼, 축소하려면 빼기 표시가 있는 녹색 버튼, 다음 페이지의 지도를 보려면 녹색 화살표를 클릭하세요.


METAR-TAF: